Time;durP1;ratioP1;P1;durP2;ratioP2;P2;SDS_P1;SDS_P2;PMS_P1;PMS_P2;Temp;Humidity;BMP_temperature;BMP_pressure;BME280_temperature;BME280_humidity;BME280_pressure;Samples;Min_cycle;Max_cycle;Signal;HPM_P1;HPM_P2
2021/10/27 00:01:08;;;;;;;;;;;;;;;21.67;31.52;98777.44;5020994;28;1879;-78
2021/10/27 00:03:33;;;;;;;;;;;;;;;21.61;31.75;98777.13;5039172;28;1003;-77
2021/10/27 00:05:59;;;;;;;;;;;;;;;21.60;31.77;98775.50;5040141;28;893;-77
2021/10/27 00:08:25;;;;;;;;;;;;;;;21.68;31.56;98779.03;5038555;28;1615;-77
2021/10/27 00:10:50;;;;;;;;;;;;;;;21.64;31.74;98762.09;5020179;28;1535;-78
2021/10/27 00:13:16;;;;;;;;;;;;;;;21.68;31.83;98771.34;5019832;28;970;-77
2021/10/27 00:15:41;;;;;;;;;;;;;;;21.74;31.44;98761.13;5020232;28;946;-77
2021/10/27 00:18:07;;;;;;;;;;;;;;;21.65;31.61;98758.03;5004678;28;1721;-78
2021/10/27 00:20:33;;;;;;;;;;;;;;;21.60;31.77;98761.34;5019562;28;1902;-77
2021/10/27 00:22:58;;;;;;;;;;;;;;;21.65;31.79;98763.69;4997798;28;954;-78
2021/10/27 00:25:23;;;;;;;;;;;;;;;21.55;31.87;98753.31;4997759;28;943;-78
2021/10/27 00:27:49;;;;;;;;;;;;;;;21.70;31.34;98757.53;5001249;28;1694;-77
2021/10/27 00:30:14;;;;;;;;;;;;;;;21.62;31.67;98747.56;5016884;28;1551;-77
2021/10/27 00:32:40;;;;;;;;;;;;;;;21.58;31.46;98749.63;5017082;28;949;-77
2021/10/27 00:35:06;;;;;;;;;;;;;;;21.70;31.42;98743.38;5017156;28;963;-78
2021/10/27 00:37:31;;;;;;;;;;;;;;;21.66;31.49;98747.50;5017078;28;1599;-77
2021/10/27 00:39:57;;;;;;;;;;;;;;;21.60;31.56;98755.66;5033068;28;1074;-77
2021/10/27 00:42:22;;;;;;;;;;;;;;;21.58;31.51;98755.31;5017252;28;2071;-77
2021/10/27 00:44:48;;;;;;;;;;;;;;;21.71;31.19;98752.69;5017000;28;1026;-78
2021/10/27 00:47:13;;;;;;;;;;;;;;;21.57;31.43;98756.53;5000301;28;1181;-78
2021/10/27 00:49:39;;;;;;;;;;;;;;;21.85;31.85;98753.25;5016371;28;1769;-77
2021/10/27 00:52:06;;;;;;;;;;;;;;;22.03;32.20;98749.34;5016419;28;1003;-78
2021/10/27 00:54:31;;;;;;;;;;;;;;;22.15;32.04;98748.78;5016821;28;977;-77
2021/10/27 00:56:57;;;;;;;;;;;;;;;21.89;31.75;98743.91;5018991;28;897;-78
2021/10/27 00:59:25;;;;;;;;;;;;;;;21.71;31.65;98745.00;5034301;28;1794;-77
2021/10/27 01:01:50;;;;;;;;;;;;;;;21.73;31.32;98742.53;5019026;28;1989;-77
2021/10/27 01:04:16;;;;;;;;;;;;;;;21.75;31.21;98751.41;5018455;28;921;-78
2021/10/27 01:06:42;;;;;;;;;;;;;;;21.70;31.41;98748.25;5018820;28;928;-78
2021/10/27 01:09:07;;;;;;;;;;;;;;;21.66;31.42;98747.50;5031989;28;1695;-77
2021/10/27 01:11:33;;;;;;;;;;;;;;;21.64;31.70;98739.44;5038371;28;936;-77
2021/10/27 01:13:58;;;;;;;;;;;;;;;21.79;31.51;98740.81;5037400;28;930;-78
2021/10/27 01:16:24;;;;;;;;;;;;;;;21.71;31.51;98747.84;5038172;28;1165;-77
2021/10/27 01:18:53;;;;;;;;;;;;;;;21.69;31.38;98747.44;5030250;28;1762;-77
2021/10/27 01:21:25;;;;;;;;;;;;;;;21.62;31.87;98747.56;5038546;28;1971;-77
2021/10/27 01:23:51;;;;;;;;;;;;;;;21.63;31.74;98748.38;5020075;28;927;-77
2021/10/27 01:26:16;;;;;;;;;;;;;;;21.58;31.84;98746.81;5038809;28;983;-77
2021/10/27 01:28:42;;;;;;;;;;;;;;;21.66;31.62;98747.50;5037396;28;1612;-77
2021/10/27 01:31:08;;;;;;;;;;;;;;;21.75;31.57;98739.25;5019553;28;1667;-77
2021/10/27 01:33:33;;;;;;;;;;;;;;;21.72;31.33;98746.59;5033383;28;1031;-76
2021/10/27 01:35:59;;;;;;;;;;;;;;;21.53;31.80;98738.78;5018543;28;899;-77
2021/10/27 01:38:24;;;;;;;;;;;;;;;21.69;31.67;98746.66;5023145;28;1583;-78
2021/10/27 01:40:50;;;;;;;;;;;;;;;21.73;31.37;98748.19;5037941;28;1975;-78
2021/10/27 01:43:15;;;;;;;;;;;;;;;21.74;31.32;98743.34;5037729;28;927;-78
2021/10/27 01:45:41;;;;;;;;;;;;;;;21.66;31.61;98745.50;5038124;28;901;-77
2021/10/27 01:48:08;;;;;;;;;;;;;;;21.56;31.84;98744.41;5035592;28;1606;-77
2021/10/27 01:50:34;;;;;;;;;;;;;;;21.74;31.37;98744.13;5018051;28;924;-78
2021/10/27 01:53:00;;;;;;;;;;;;;;;21.62;31.51;98741.09;5017662;28;931;-77
2021/10/27 01:55:25;;;;;;;;;;;;;;;21.72;31.47;98740.94;5018183;28;1603;-77
2021/10/27 01:57:51;;;;;;;;;;;;;;;21.50;31.54;98739.63;5016154;28;1696;-78
2021/10/27 02:00:17;;;;;;;;;;;;;;;21.67;31.40;98732.91;5037139;28;1543;-76
2021/10/27 02:02:42;;;;;;;;;;;;;;;21.47;31.73;98735.63;5037585;28;1914;-78
2021/10/27 02:05:08;;;;;;;;;;;;;;;21.64;31.47;98738.63;5037225;28;933;-78
2021/10/27 02:07:33;;;;;;;;;;;;;;;21.75;32.00;98734.41;5037585;28;950;-78
2021/10/27 02:09:59;;;;;;;;;;;;;;;21.94;32.25;98746.25;5022452;28;1658;-77
2021/10/27 02:12:24;;;;;;;;;;;;;;;22.04;32.12;98745.28;4995301;28;1572;-77
2021/10/27 02:14:50;;;;;;;;;;;;;;;21.80;32.21;98745.25;4995066;28;966;-77
2021/10/27 02:17:15;;;;;;;;;;;;;;;21.71;32.00;98750.66;4995784;28;1384;-78
2021/10/27 02:19:41;;;;;;;;;;;;;;;21.65;31.89;98743.84;4995441;28;1867;-77
2021/10/27 02:22:07;;;;;;;;;;;;;;;21.62;31.75;98747.56;4995898;28;1910;-78
2021/10/27 02:24:32;;;;;;;;;;;;;;;21.69;31.59;98747.44;4994990;28;927;-77
2021/10/27 02:26:58;;;;;;;;;;;;;;;21.71;31.37;98739.34;4995649;28;1017;-78
2021/10/27 02:29:24;;;;;;;;;;;;;;;21.64;31.92;98738.63;4995201;28;1603;-77
2021/10/27 02:31:52;;;;;;;;;;;;;;;21.72;31.53;98734.47;4995507;28;1452;-77
2021/10/27 02:34:17;;;;;;;;;;;;;;;21.61;31.85;98739.50;4995098;28;964;-78
2021/10/27 02:36:43;;;;;;;;;;;;;;;21.51;31.96;98746.91;4996513;28;983;-78
2021/10/27 02:39:09;;;;;;;;;;;;;;;21.56;32.00;98744.41;4994859;28;1627;-77
2021/10/27 02:41:35;;;;;;;;;;;;;;;21.53;32.03;98738.78;4995486;28;1910;-77
2021/10/27 02:44:00;;;;;;;;;;;;;;;21.50;32.02;98739.63;5027225;28;1222;-78
2021/10/27 02:46:26;;;;;;;;;;;;;;;21.65;31.81;98752.34;5037142;28;1272;-78
2021/10/27 02:48:52;;;;;;;;;;;;;;;21.60;31.99;98744.34;5029509;28;1587;-78
2021/10/27 02:51:17;;;;;;;;;;;;;;;21.51;31.82;98746.91;5018025;28;849;-78
2021/10/27 02:53:42;;;;;;;;;;;;;;;21.45;32.16;98754.28;5016815;28;1027;-78
2021/10/27 02:56:08;;;;;;;;;;;;;;;21.61;31.86;98751.63;5032965;28;904;-78
2021/10/27 02:58:33;;;;;;;;;;;;;;;21.56;31.72;98752.91;5017964;28;1901;-77
2021/10/27 03:00:59;;;;;;;;;;;;;;;21.51;31.79;98755.41;5034808;28;1906;-77
2021/10/27 03:03:24;;;;;;;;;;;;;;;21.54;31.71;98741.19;5034217;28;987;-78
2021/10/27 03:05:50;;;;;;;;;;;;;;;21.51;31.79;98753.38;5034706;28;921;-78
2021/10/27 03:08:16;;;;;;;;;;;;;;;21.58;31.67;98746.81;5012523;28;1509;-78
2021/10/27 03:10:41;;;;;;;;;;;;;;;21.49;31.93;98738.03;4995168;28;1008;-78
2021/10/27 03:13:07;;;;;;;;;;;;;;;21.63;31.99;98748.38;4994831;28;920;-77
2021/10/27 03:15:32;;;;;;;;;;;;;;;21.93;32.39;98745.47;4995069;28;919;-78
2021/10/27 03:17:59;;;;;;;;;;;;;;;22.15;32.27;98745.94;4997872;28;1338;-78
2021/10/27 03:20:24;;;;;;;;;;;;;;;21.84;32.21;98748.81;5017458;28;1801;-77
2021/10/27 03:22:50;;;;;;;;;;;;;;;21.81;31.61;98749.69;4979571;28;1993;-78
2021/10/27 03:25:15;;;;;;;;;;;;;;;21.71;31.37;98755.50;4979252;28;1010;-78
2021/10/27 03:27:40;;;;;;;;;;;;;;;21.77;31.29;98748.94;4947277;28;967;-78
2021/10/27 03:30:06;;;;;;;;;;;;;;;21.63;31.15;98752.00;4949742;28;1653;-78
2021/10/27 03:32:32;;;;;;;;;;;;;;;21.61;31.59;98751.63;4957310;29;999;-78
2021/10/27 03:34:57;;;;;;;;;;;;;;;21.64;31.80;98759.25;4940463;29;1048;-78
2021/10/27 03:37:23;;;;;;;;;;;;;;;21.72;31.60;98760.75;4941072;29;957;-78
2021/10/27 03:39:48;;;;;;;;;;;;;;;21.58;31.70;98758.13;4968360;28;1692;-77
2021/10/27 03:42:14;;;;;;;;;;;;;;;21.62;31.95;98761.72;4979896;28;1898;-78
2021/10/27 03:44:39;;;;;;;;;;;;;;;21.61;31.96;98762.97;4979307;28;1027;-78
2021/10/27 03:47:04;;;;;;;;;;;;;;;21.47;32.04;98774.47;4979642;28;1037;-78
2021/10/27 03:49:30;;;;;;;;;;;;;;;21.49;31.90;98766.34;4979082;28;1742;-78
2021/10/27 03:51:55;;;;;;;;;;;;;;;21.56;31.91;98771.94;4995412;28;1167;-78
2021/10/27 03:54:21;;;;;;;;;;;;;;;21.54;31.87;98768.69;4978668;28;1078;-78
2021/10/27 03:56:46;;;;;;;;;;;;;;;21.49;31.96;98767.16;4979449;28;992;-77
2021/10/27 03:59:12;;;;;;;;;;;;;;;21.67;32.34;98766.91;4981033;28;1742;-77
2021/10/27 04:01:37;;;;;;;;;;;;;;;21.78;32.58;98767.53;5020621;28;2212;-78
2021/10/27 04:04:03;;;;;;;;;;;;;;;22.07;32.35;98767.06;5019983;28;903;-78
2021/10/27 04:06:28;;;;;;;;;;;;;;;21.74;32.08;98766.78;5020538;28;987;-78
2021/10/27 04:08:54;;;;;;;;;;;;;;;21.68;31.92;98774.16;5024817;28;1955;-78
2021/10/27 04:11:19;;;;;;;;;;;;;;;21.78;31.36;98767.53;5039992;28;920;-78
2021/10/27 04:13:45;;;;;;;;;;;;;;;21.73;31.10;98768.03;5039846;28;931;-78
2021/10/27 04:16:10;;;;;;;;;;;;;;;21.71;31.18;98769.66;5039976;28;1063;-78
2021/10/27 04:18:35;;;;;;;;;;;;;;;21.62;31.36;98763.75;5039500;28;969;-77
2021/10/27 04:21:01;;;;;;;;;;;;;;;21.60;31.50;98767.00;4997988;28;1902;-77
2021/10/27 04:23:27;;;;;;;;;;;;;;;21.72;31.12;98766.44;4997433;28;987;-78
2021/10/27 04:25:52;;;;;;;;;;;;;;;21.62;31.70;98770.22;4997984;28;958;-78
2021/10/27 04:28:17;;;;;;;;;;;;;;;21.63;31.47;98771.03;4997239;28;978;-78
2021/10/27 04:30:43;;;;;;;;;;;;;;;21.52;31.58;98771.97;4998384;28;948;-78
2021/10/27 04:33:18;;;;;;;;;;;;;;;21.63;31.49;98766.16;4997448;28;970;-78
2021/10/27 04:35:45;;;;;;;;;;;;;;;21.61;31.61;98767.81;4997944;28;919;-78
2021/10/27 04:38:11;;;;;;;;;;;;;;;21.53;31.48;98764.28;4997575;28;932;-78
2021/10/27 04:40:36;;;;;;;;;;;;;;;21.42;31.90;98766.47;4998061;28;1903;-78
2021/10/27 04:43:01;;;;;;;;;;;;;;;21.49;31.80;98766.34;4997644;28;1123;-78
2021/10/27 04:45:28;;;;;;;;;;;;;;;21.57;31.51;98773.53;4998025;28;1021;-79
2021/10/27 04:47:54;;;;;;;;;;;;;;;21.59;31.84;98776.72;4997621;28;951;-78
2021/10/27 04:50:19;;;;;;;;;;;;;;;21.53;31.93;98770.75;4997408;28;1053;-78
2021/10/27 04:52:44;;;;;;;;;;;;;;;21.55;31.65;98768.31;5031340;28;1008;-78
2021/10/27 04:55:10;;;;;;;;;;;;;;;21.49;31.93;98777.69;5039160;28;921;-78
2021/10/27 04:57:35;;;;;;;;;;;;;;;21.58;31.46;98775.13;5038906;28;1109;-78
2021/10/27 05:00:01;;;;;;;;;;;;;;;21.44;31.92;98776.13;5038824;28;973;-78
2021/10/27 05:02:26;;;;;;;;;;;;;;;21.59;31.76;98771.06;5037546;28;1910;-78
2021/10/27 05:04:52;;;;;;;;;;;;;;;21.84;32.35;98776.34;5036120;28;976;-78
2021/10/27 05:07:18;;;;;;;;;;;;;;;22.04;32.15;98782.94;5036793;28;1010;-78
2021/10/27 05:09:43;;;;;;;;;;;;;;;22.03;31.85;98778.50;5035965;28;975;-78
2021/10/27 05:12:09;;;;;;;;;;;;;;;21.84;31.72;98782.81;5036644;28;1019;-78
2021/10/27 05:14:38;;;;;;;;;;;;;;;21.61;31.84;98794.13;5035965;28;969;-78
2021/10/27 05:17:10;;;;;;;;;;;;;;;21.72;31.29;98791.91;5036460;28;1257;-78
2021/10/27 05:19:39;;;;;;;;;;;;;;;21.65;31.15;98800.50;5036037;28;852;-78
2021/10/27 05:22:07;;;;;;;;;;;;;;;21.68;31.17;98796.81;5019679;28;1994;-78
2021/10/27 05:24:32;;;;;;;;;;;;;;;21.76;31.55;98808.84;5035910;28;924;-78
2021/10/27 05:26:58;;;;;;;;;;;;;;;21.73;31.57;98806.88;5036347;28;1051;-78
2021/10/27 05:29:24;;;;;;;;;;;;;;;21.63;31.58;98811.47;5035788;28;976;-78
2021/10/27 05:31:49;;;;;;;;;;;;;;;21.53;31.98;98812.41;5035861;28;952;-78
2021/10/27 05:34:15;;;;;;;;;;;;;;;21.53;31.78;98829.41;5035864;28;957;-78
2021/10/27 05:36:41;;;;;;;;;;;;;;;21.52;31.88;98822.16;5036537;28;957;-77
2021/10/27 05:39:06;;;;;;;;;;;;;;;21.48;32.03;98827.84;5035371;28;994;-78
2021/10/27 05:41:32;;;;;;;;;;;;;;;21.58;31.93;98820.44;5036109;28;1902;-78
2021/10/27 05:43:58;;;;;;;;;;;;;;;21.59;31.92;98827.69;5035629;28;1004;-77
2021/10/27 05:46:24;;;;;;;;;;;;;;;21.68;31.68;98825.16;5036146;28;949;-77
2021/10/27 05:49:00;;;;;;;;;;;;;;;21.55;31.89;98835.44;5035259;28;1013;-77
2021/10/27 05:51:42;;;;;;;;;;;;;;;21.47;31.82;98839.59;5035928;28;1010;-78
2021/10/27 05:56:51;;;;;;;;;;;;;;;21.53;31.74;98841.53;5035737;28;924;-78
2021/10/27 05:59:17;;;;;;;;;;;;;;;21.57;31.64;98847.97;5035178;28;1018;-77
2021/10/27 06:01:42;;;;;;;;;;;;;;;21.50;31.76;98858.56;5035768;28;1906;-77
2021/10/27 06:04:08;;;;;;;;;;;;;;;21.51;31.60;98849.66;5035252;28;1180;-78
2021/10/27 06:06:33;;;;;;;;;;;;;;;21.45;31.75;98861.84;5035777;28;961;-77
2021/10/27 06:09:00;;;;;;;;;;;;;;;21.76;31.68;98860.66;5035681;28;1000;-78
2021/10/27 06:11:25;;;;;;;;;;;;;;;21.92;32.07;98862.06;5038070;28;1053;-78
2021/10/27 06:13:50;;;;;;;;;;;;;;;22.00;31.81;98866.38;5037286;28;971;-78
2021/10/27 06:16:16;;;;;;;;;;;;;;;21.78;31.64;98858.19;5037693;28;1020;-78
2021/10/27 06:18:41;;;;;;;;;;;;;;;21.79;31.09;98865.47;5037009;28;865;-78
2021/10/27 06:21:07;;;;;;;;;;;;;;;21.70;31.05;98872.88;5037837;28;1907;-78
2021/10/27 06:23:33;;;;;;;;;;;;;;;21.43;31.43;98864.31;5019301;28;876;-77
2021/10/27 06:25:59;;;;;;;;;;;;;;;21.67;31.23;98870.91;5038042;28;969;-77
2021/10/27 06:28:28;;;;;;;;;;;;;;;21.74;31.10;98867.97;5034213;28;953;-77
2021/10/27 06:39:00;;;;;;;;;;;;;;;21.65;31.41;98882.63;4994798;28;1152;-78
2021/10/27 06:46:54;;;;;;;;;;;;;;;21.49;31.57;98879.59;4973440;28;1472;-78
2021/10/27 06:49:19;;;;;;;;;;;;;;;21.61;31.65;98886.78;4955813;29;1211;-78
2021/10/27 06:51:44;;;;;;;;;;;;;;;21.53;31.52;98886.03;4936774;29;1208;-78
2021/10/27 06:54:10;;;;;;;;;;;;;;;21.57;31.43;98886.81;4927045;29;1259;-78
2021/10/27 06:56:36;;;;;;;;;;;;;;;21.78;31.85;98885.72;4925893;29;1415;-77
2021/10/27 07:17:32;;;;;;;;;;;;;;;21.49;31.50;98882.44;4908632;29;1292;-77
2021/10/27 07:19:58;;;;;;;;;;;;;;;21.56;31.73;98880.34;4898919;29;964;-78
2021/10/27 07:22:24;;;;;;;;;;;;;;;21.42;31.77;98879.72;4912869;29;1972;-78
2021/10/27 07:24:50;;;;;;;;;;;;;;;21.42;31.59;98888.19;4936789;29;905;-78
2021/10/27 07:27:15;;;;;;;;;;;;;;;21.57;31.60;98889.63;4936744;29;1067;-78
2021/10/27 07:29:43;;;;;;;;;;;;;;;21.44;31.82;98885.75;4935786;29;1311;-78
2021/10/27 07:32:10;;;;;;;;;;;;;;;21.48;31.66;98884.47;4936879;29;990;-78
2021/10/27 07:34:38;;;;;;;;;;;;;;;21.47;31.31;98884.91;4941906;28;1067;-78
2021/10/27 07:40:32;;;;;;;;;;;;;;;21.91;31.45;98891.59;4917531;29;1011;-78
2021/10/27 07:42:39;;;;;;;;;;;;;;;21.97;31.78;98890.72;4915146;29;1918;-78
2021/10/27 07:45:05;;;;;;;;;;;;;;;21.81;31.50;98891.34;4924372;29;920;-78
2021/10/27 07:47:30;;;;;;;;;;;;;;;21.70;31.64;98890.66;4925787;29;1377;-78
2021/10/27 07:49:55;;;;;;;;;;;;;;;21.63;31.31;98890.78;4925097;29;1242;-78
2021/10/27 07:52:21;;;;;;;;;;;;;;;21.57;31.40;98886.81;4909003;29;1193;-78
2021/10/27 07:54:46;;;;;;;;;;;;;;;21.41;31.49;98887.41;4925017;29;1327;-77
2021/10/27 07:57:13;;;;;;;;;;;;;;;21.61;31.28;98893.22;4907610;29;1292;-77
2021/10/27 07:59:38;;;;;;;;;;;;;;;21.51;31.36;98894.16;4907222;29;1264;-77
2021/10/27 08:02:05;;;;;;;;;;;;;;;21.60;31.37;98885.94;4913108;28;1982;-78
2021/10/27 08:04:30;;;;;;;;;;;;;;;21.51;31.62;98894.16;4969551;28;1323;-77
2021/10/27 08:06:56;;;;;;;;;;;;;;;21.55;31.47;98881.56;4918804;29;1244;-77
2021/10/27 08:09:21;;;;;;;;;;;;;;;21.51;31.48;98882.84;4965644;28;1146;-76
2021/10/27 08:11:48;;;;;;;;;;;;;;;21.54;31.59;98882.78;4968287;28;1381;-79
2021/10/27 08:14:14;;;;;;;;;;;;;;;21.50;31.49;98875.53;4965868;28;1271;-76
2021/10/27 08:16:40;;;;;;;;;;;;;;;21.91;31.54;98872.56;5017717;28;1315;-76
2021/10/27 08:19:05;;;;;;;;;;;;;;;22.03;31.48;98868.38;5039113;28;1383;-77
2021/10/27 08:21:30;;;;;;;;;;;;;;;21.80;31.41;98872.72;5003815;28;1929;-77
2021/10/27 08:23:56;;;;;;;;;;;;;;;21.73;31.38;98872.84;5039524;28;1563;-77
2021/10/27 08:26:23;;;;;;;;;;;;;;;21.44;31.62;98880.06;5039725;28;1289;-77
2021/10/27 08:28:54;;;;;;;;;;;;;;;21.58;31.67;98882.75;5039133;28;1337;-76
2021/10/27 08:31:28;;;;;;;;;;;;;;;21.45;31.77;98878.84;5039439;28;1349;-77
2021/10/27 08:36:19;;;;;;;;;;;;;;;21.58;31.43;98888.41;5045212;28;1439;-77
2021/10/27 08:38:45;;;;;;;;;;;;;;;21.49;31.68;98890.94;4996968;28;1218;-77
2021/10/27 08:41:12;;;;;;;;;;;;;;;21.57;31.37;98892.47;4997163;28;1910;-77
2021/10/27 08:43:37;;;;;;;;;;;;;;;21.52;31.40;98890.09;4997112;28;1454;-77
2021/10/27 08:46:03;;;;;;;;;;;;;;;21.53;31.11;98883.22;4997031;28;1253;-77
2021/10/27 08:48:31;;;;;;;;;;;;;;;21.74;31.77;98891.44;4980407;28;1550;-77
2021/10/27 08:50:57;;;;;;;;;;;;;;;21.89;32.00;98891.25;4997913;28;1380;-77
2021/10/27 08:53:24;;;;;;;;;;;;;;;21.95;31.48;98878.19;4996316;28;1353;-77
2021/10/27 08:55:51;;;;;;;;;;;;;;;21.71;31.87;98889.47;4997089;28;1558;-78
2021/10/27 08:58:27;;;;;;;;;;;;;;;21.68;31.62;98886.66;4964393;28;1211;-77
2021/10/27 09:06:21;;;;;;;;;;;;;;;21.56;31.66;98873.88;4997363;28;972;-77
2021/10/27 09:09:10;;;;;;;;;;;;;;;21.46;31.79;98875.59;5001013;28;1124;-77
2021/10/27 10:05:40;;;;;;;;;;;;;;;21.55;31.58;98855.25;4880583;29;1185;-77
2021/10/27 10:08:05;;;;;;;;;;;;;;;21.64;31.14;98849.88;4880894;29;1327;-77
2021/10/27 10:10:31;;;;;;;;;;;;;;;21.57;31.47;98850.00;4881173;29;1355;-77
2021/10/27 10:12:58;;;;;;;;;;;;;;;21.70;31.75;98839.69;4881405;29;918;-77
2021/10/27 10:15:27;;;;;;;;;;;;;;;21.83;32.04;98840.72;4881050;29;2147;-77
2021/10/27 10:17:52;;;;;;;;;;;;;;;22.00;31.70;98840.88;4881297;29;1273;-77
2021/10/27 10:20:18;;;;;;;;;;;;;;;21.82;31.73;98839.13;4890669;29;1023;-76
2021/10/27 10:22:43;;;;;;;;;;;;;;;21.71;31.82;98829.97;4922293;29;1914;-77
2021/10/27 10:25:15;;;;;;;;;;;;;;;21.65;31.61;98826.00;4937743;29;1001;-76
2021/10/27 10:27:46;;;;;;;;;;;;;;;21.50;32.24;98841.56;4941752;29;1004;-77
2021/10/27 10:30:24;;;;;;;;;;;;;;;21.56;31.98;98829.38;4956707;28;1001;-78
2021/10/27 10:33:05;;;;;;;;;;;;;;;21.42;32.39;98835.22;4957176;28;1122;-77
2021/10/27 10:38:39;;;;;;;;;;;;;;;21.51;32.42;98829.03;4899174;29;951;-78
2021/10/27 10:41:26;;;;;;;;;;;;;;;21.72;31.74;98825.13;4917901;29;1891;-77
2021/10/27 11:38:37;;;;;;;;;;;;;;;21.46;31.51;98796.34;4901427;29;1026;-77
2021/10/27 11:41:27;;;;;;;;;;;;;;;21.51;31.32;98792.22;4890197;29;1903;-77
2021/10/27 11:44:09;;;;;;;;;;;;;;;21.50;31.54;98797.09;4887984;29;1181;-78
2021/10/27 11:46:46;;;;;;;;;;;;;;;21.53;31.11;98789.75;4886052;29;963;-78
2021/10/27 11:49:12;;;;;;;;;;;;;;;21.58;30.97;98786.47;4866500;29;1093;-77
2021/10/27 11:51:38;;;;;;;;;;;;;;;21.43;31.41;98785.84;4861632;29;1295;-77
2021/10/27 11:54:14;;;;;;;;;;;;;;;21.49;31.40;98794.66;4812827;29;1218;-77
2021/10/27 11:56:40;;;;;;;;;;;;;;;21.62;31.09;98781.56;4849262;29;1009;-78
2021/10/27 11:59:05;;;;;;;;;;;;;;;21.65;30.72;98792.00;4848104;29;1038;-77
2021/10/27 12:01:40;;;;;;;;;;;;;;;21.45;31.17;98793.91;4849346;29;1998;-77
2021/10/27 12:04:09;;;;;;;;;;;;;;;21.49;31.00;98791.84;4848032;29;995;-78
2021/10/27 12:06:47;;;;;;;;;;;;;;;21.60;30.81;98778.31;4869065;29;1091;-78
2021/10/27 12:12:10;;;;;;;;;;;;;;;21.62;30.89;98781.56;4867726;29;985;-78
2021/10/27 12:14:43;;;;;;;;;;;;;;;21.97;31.47;98785.09;4866229;29;1058;-77
2021/10/27 12:17:25;;;;;;;;;;;;;;;22.18;31.53;98796.09;4843441;29;1258;-78
2021/10/27 12:19:51;;;;;;;;;;;;;;;22.09;31.53;98787.31;4859837;29;1512;-78
2021/10/27 12:22:19;;;;;;;;;;;;;;;21.79;31.55;98783.31;4885328;29;1978;-77
2021/10/27 12:24:51;;;;;;;;;;;;;;;21.65;31.58;98775.00;4912284;29;1047;-78
2021/10/27 12:27:22;;;;;;;;;;;;;;;21.54;31.60;98782.88;4960134;29;970;-77
2021/10/27 12:29:52;;;;;;;;;;;;;;;21.59;31.73;98782.38;4927984;29;1003;-78
2021/10/27 12:32:18;;;;;;;;;;;;;;;21.63;31.40;98771.03;4928216;29;1093;-78
2021/10/27 12:34:44;;;;;;;;;;;;;;;21.62;31.60;98775.88;4943213;29;1023;-77
2021/10/27 12:37:30;;;;;;;;;;;;;;;21.56;31.74;98771.94;4960687;29;945;-77
2021/10/27 12:40:13;;;;;;;;;;;;;;;21.64;31.54;98767.75;4977058;28;923;-77
2021/10/27 12:42:38;;;;;;;;;;;;;;;21.51;31.67;98783.72;4998567;28;1883;-77
2021/10/27 12:45:04;;;;;;;;;;;;;;;21.71;31.07;98778.16;4973280;28;981;-77
2021/10/27 12:47:31;;;;;;;;;;;;;;;21.58;31.47;98780.78;5018733;28;930;-78
2021/10/27 12:50:06;;;;;;;;;;;;;;;21.64;31.34;98784.75;5017991;28;966;-77
2021/10/27 12:52:44;;;;;;;;;;;;;;;21.43;31.44;98785.84;5018671;28;1017;-77
2021/10/27 12:55:18;;;;;;;;;;;;;;;21.53;31.32;98790.56;5017448;28;989;-77
2021/10/27 12:57:56;;;;;;;;;;;;;;;21.50;31.23;98790.59;5012669;28;925;-77
2021/10/27 13:00:27;;;;;;;;;;;;;;;21.51;31.25;98793.03;5000617;28;941;-77
2021/10/27 13:03:21;;;;;;;;;;;;;;;21.56;31.37;98783.25;5014958;28;1902;-77
2021/10/27 13:06:01;;;;;;;;;;;;;;;21.64;31.39;98793.25;5014731;28;936;-77
2021/10/27 13:11:10;;;;;;;;;;;;;;;21.56;31.41;98788.91;5000994;28;1024;-76
2021/10/27 13:21:28;;;;;;;;;;;;;;;21.54;31.14;98794.19;5021750;28;1914;-78
2021/10/27 13:31:50;;;;;;;;;;;;;;;21.62;30.86;98786.41;4941088;29;1039;-77
2021/10/27 13:34:15;;;;;;;;;;;;;;;21.67;30.73;98795.22;4939969;29;982;-77
2021/10/27 13:36:41;;;;;;;;;;;;;;;21.64;30.87;98793.25;4941068;29;1156;-78
2021/10/27 13:39:06;;;;;;;;;;;;;;;21.82;31.56;98790.97;4940041;29;948;-78
2021/10/27 13:41:32;;;;;;;;;;;;;;;22.03;31.35;98794.69;4941010;29;1972;-77
2021/10/27 13:44:05;;;;;;;;;;;;;;;22.17;31.60;98800.16;4939647;29;900;-77
2021/10/27 14:08:27;;;;;;;;;;;;;;;21.45;31.61;98799.56;4897050;29;1012;-78
2021/10/27 14:13:53;;;;;;;;;;;;;;;21.41;31.46;98808.13;4938568;29;1045;-78
2021/10/27 14:47:30;;;;;;;;;;;;;;;21.62;31.71;98821.19;4939918;29;932;-78
2021/10/27 15:19:55;;;;;;;;;;;;;;;21.52;31.74;98844.78;4961214;28;908;-77
2021/10/27 15:27:46;;;;;;;;;;;;;;;21.70;32.07;98851.00;4977979;28;1012;-77
2021/10/27 15:30:36;;;;;;;;;;;;;;;21.99;32.21;98850.63;4963413;28;967;-77
2021/10/27 15:41:08;;;;;;;;;;;;;;;21.65;31.67;98868.47;4998066;28;992;-77
2021/10/27 15:43:57;;;;;;;;;;;;;;;21.56;31.75;98865.38;4995244;28;861;-77
2021/10/27 15:51:57;;;;;;;;;;;;;;;21.44;31.91;98865.91;5003070;28;1119;-77
2021/10/27 15:54:23;;;;;;;;;;;;;;;21.50;31.68;98869.88;5015739;28;932;-77
2021/10/27 15:56:48;;;;;;;;;;;;;;;21.53;31.89;98863.38;5017355;28;925;-78
2021/10/27 15:59:14;;;;;;;;;;;;;;;21.59;31.56;98867.34;4960487;28;972;-78
2021/10/27 16:01:40;;;;;;;;;;;;;;;21.59;31.73;98873.81;4977874;28;1903;-77
2021/10/27 16:04:05;;;;;;;;;;;;;;;21.53;31.80;98877.53;4976483;28;1171;-77
2021/10/27 16:06:34;;;;;;;;;;;;;;;21.54;31.64;98871.44;4977730;28;983;-78
2021/10/27 16:09:04;;;;;;;;;;;;;;;21.61;31.56;98876.25;4960388;28;1204;-78
2021/10/27 16:11:29;;;;;;;;;;;;;;;21.54;31.37;98876.31;4978295;28;1070;-78
2021/10/27 16:13:54;;;;;;;;;;;;;;;21.58;31.37;98879.91;4976566;28;910;-78
2021/10/27 16:16:20;;;;;;;;;;;;;;;21.58;31.30;98877.06;4974320;28;1256;-78
2021/10/27 16:18:46;;;;;;;;;;;;;;;21.49;31.57;98874.75;4937861;29;953;-78
2021/10/27 16:21:11;;;;;;;;;;;;;;;21.52;31.63;98870.28;4958710;29;1981;-77
2021/10/27 16:23:37;;;;;;;;;;;;;;;21.43;31.80;98869.97;4956624;28;988;-77
2021/10/27 16:26:02;;;;;;;;;;;;;;;21.49;31.69;98885.28;4962589;29;1098;-77
2021/10/27 16:28:28;;;;;;;;;;;;;;;21.61;31.48;98887.56;4960358;29;988;-77
2021/10/27 16:30:53;;;;;;;;;;;;;;;21.69;31.79;98883.41;4977063;28;1009;-77
2021/10/27 16:33:21;;;;;;;;;;;;;;;22.01;31.76;98890.66;5011529;28;919;-77
2021/10/27 16:35:47;;;;;;;;;;;;;;;22.17;31.68;98884.38;5021558;28;1003;-77
2021/10/27 16:38:13;;;;;;;;;;;;;;;21.85;31.97;98891.28;5020209;28;933;-77
2021/10/27 16:40:38;;;;;;;;;;;;;;;21.72;32.05;98893.91;5022582;28;913;-78
2021/10/27 16:43:04;;;;;;;;;;;;;;;21.79;31.33;98890.97;5020750;28;1907;-77
2021/10/27 16:45:32;;;;;;;;;;;;;;;21.64;31.55;98895.19;5021895;28;905;-78
2021/10/27 16:47:58;;;;;;;;;;;;;;;21.59;31.63;98892.84;5002705;28;985;-78
2021/10/27 16:50:24;;;;;;;;;;;;;;;21.56;32.13;98902.19;5021804;28;974;-78
2021/10/27 16:52:50;;;;;;;;;;;;;;;21.64;31.67;98903.69;5021393;28;1053;-77
2021/10/27 16:55:18;;;;;;;;;;;;;;;21.67;31.87;98897.19;5021132;28;1257;-78
2021/10/27 16:57:45;;;;;;;;;;;;;;;21.54;31.93;98904.63;4999839;28;949;-78
2021/10/27 17:00:30;;;;;;;;;;;;;;;21.62;31.78;98906.16;4999093;28;956;-79
2021/10/27 17:02:56;;;;;;;;;;;;;;;21.63;31.65;98899.25;4960161;29;1915;-77
2021/10/27 17:05:22;;;;;;;;;;;;;;;21.67;31.76;98908.53;4960372;29;910;-78
2021/10/27 17:07:47;;;;;;;;;;;;;;;21.57;31.98;98903.78;4960368;29;914;-77
2021/10/27 17:10:15;;;;;;;;;;;;;;;21.43;32.31;98918.13;4960189;28;994;-78
2021/10/27 17:12:40;;;;;;;;;;;;;;;21.47;31.78;98910.38;4960467;29;953;-78
2021/10/27 17:15:06;;;;;;;;;;;;;;;21.47;31.89;98910.38;4959428;28;960;-78
2021/10/27 17:17:32;;;;;;;;;;;;;;;21.41;31.95;98917.75;4960300;28;1071;-78
2021/10/27 17:19:57;;;;;;;;;;;;;;;21.46;32.09;98920.13;4959476;29;960;-78
2021/10/27 17:22:26;;;;;;;;;;;;;;;21.45;31.97;98915.66;4960674;29;2140;-78
2021/10/27 17:24:51;;;;;;;;;;;;;;;21.47;32.11;98911.19;4959478;29;903;-78
2021/10/27 17:27:17;;;;;;;;;;;;;;;21.40;32.22;98916.13;4960215;28;1030;-78
2021/10/27 17:29:42;;;;;;;;;;;;;;;21.49;31.98;98919.25;4976970;28;972;-78
2021/10/27 17:32:08;;;;;;;;;;;;;;;21.42;32.12;98908.03;4979740;28;1137;-78
2021/10/27 17:34:34;;;;;;;;;;;;;;;21.44;31.98;98922.53;4978288;28;1006;-78
2021/10/27 17:37:00;;;;;;;;;;;;;;;21.47;31.88;98918.88;4962619;28;915;-78
2021/10/27 17:39:27;;;;;;;;;;;;;;;21.64;31.67;98926.34;4984009;28;950;-79
2021/10/27 17:41:57;;;;;;;;;;;;;;;21.52;31.76;98915.59;4979462;28;1906;-78
2021/10/27 17:44:24;;;;;;;;;;;;;;;21.64;31.60;98915.03;4946789;28;934;-78